createdAt,value
2019-04-21T00:00:17.020Z,7.25
2019-04-21T00:02:50.490Z,7.33
2019-04-21T00:05:38.511Z,7.33
2019-04-21T00:08:07.552Z,7.17
2019-04-21T00:10:44.562Z,7.33
2019-04-21T00:13:01.929Z,6.30
2019-04-21T00:15:31.650Z,7.58
2019-04-21T00:17:57.436Z,7.30
2019-04-21T00:20:31.055Z,7.30
2019-04-21T00:23:10.181Z,6.70
2019-04-21T00:25:33.922Z,7.33
2019-04-21T00:28:14.054Z,6.37
2019-04-21T00:30:45.888Z,7.12
2019-04-21T00:33:03.100Z,7.40
2019-04-21T00:35:27.447Z,7.30
2019-04-21T00:38:13.661Z,7.25
2019-04-21T00:40:47.943Z,6.72
2019-04-21T00:43:13.320Z,6.72
2019-04-21T00:45:39.305Z,7.75
2019-04-21T00:48:17.582Z,6.83
2019-04-21T00:51:03.601Z,6.85
2019-04-21T00:53:38.434Z,6.47
2019-04-21T00:55:59.852Z,7.00
2019-04-21T00:58:28.305Z,6.90
2019-04-21T01:00:58.979Z,7.00
2019-04-21T01:03:26.085Z,7.28
2019-04-21T01:06:03.903Z,7.15
2019-04-21T01:08:29.774Z,7.10
2019-04-21T01:10:51.351Z,6.58
2019-04-21T01:13:27.273Z,7.30
2019-04-21T01:16:00.772Z,7.05
2019-04-21T01:18:31.382Z,7.60
2019-04-21T01:20:35.684Z,6.53
2019-04-21T01:23:04.327Z,7.40
2019-04-21T01:25:40.452Z,5.12
2019-04-21T01:28:23.244Z,6.62
2019-04-21T01:30:53.455Z,7.28
2019-04-21T01:33:27.801Z,6.80
2019-04-21T01:35:48.486Z,6.50
2019-04-21T01:38:29.134Z,7.20
2019-04-21T01:40:52.888Z,7.65
2019-04-21T01:43:23.445Z,7.50
2019-04-21T01:45:49.373Z,6.65
2019-04-21T01:48:21.647Z,5.87
2019-04-21T01:50:51.241Z,6.55
2019-04-21T01:53:30.641Z,7.10
2019-04-21T01:56:17.236Z,7.60
2019-04-21T01:58:38.781Z,6.45
2019-04-21T02:01:19.297Z,7.12
2019-04-21T02:03:52.921Z,6.20
2019-04-21T02:06:21.395Z,6.60
2019-04-21T02:08:49.443Z,6.58
2019-04-21T02:11:28.112Z,7.33
2019-04-21T02:13:57.257Z,6.67
2019-04-21T02:16:17.035Z,6.95
2019-04-21T02:18:52.555Z,7.25
2019-04-21T02:21:14.882Z,6.10
2019-04-21T02:23:57.484Z,7.10
2019-04-21T02:26:22.659Z,6.25
2019-04-21T02:28:56.309Z,7.00
2019-04-21T02:31:37.641Z,6.10
2019-04-21T02:33:58.605Z,6.83
2019-04-21T02:41:33.026Z,6.42
2019-04-21T02:51:39.624Z,6.40
2019-04-21T02:56:35.647Z,7.30
2019-04-21T03:07:46.508Z,6.97
2019-04-21T03:09:49.708Z,6.50
2019-04-21T03:12:19.694Z,6.05
2019-04-21T03:20:15.079Z,6.28
2019-04-21T03:25:22.895Z,4.95
2019-04-21T03:29:54.867Z,6.80
2019-04-21T03:49:54.742Z,6.70
2019-04-21T03:55:48.762Z,5.70
2019-04-21T04:01:04.910Z,6.67
2019-04-21T04:03:51.900Z,6.25
2019-04-21T04:11:41.541Z,5.70
2019-04-21T04:14:18.513Z,6.25
2019-04-21T04:16:49.795Z,5.58
2019-04-21T04:21:39.561Z,5.12
2019-04-21T04:24:11.033Z,5.83
2019-04-21T04:29:20.350Z,6.37
2019-04-21T04:31:39.590Z,6.90
2019-04-21T04:34:12.678Z,6.50
2019-04-21T04:39:35.833Z,7.17
2019-04-21T04:42:12.659Z,7.05
2019-04-21T04:47:15.542Z,7.28
2019-04-21T04:49:46.705Z,7.45
2019-04-21T04:52:27.635Z,7.80
2019-04-21T04:57:08.243Z,7.87
2019-04-21T05:02:14.930Z,8.85
2019-04-21T05:04:46.022Z,8.70
2019-04-21T05:09:31.943Z,8.68
2019-04-21T05:11:55.399Z,9.73
2019-04-21T05:14:33.915Z,10.25
2019-04-21T05:17:21.546Z,10.55
2019-04-21T05:19:54.038Z,11.45
2019-04-21T05:21:55.379Z,12.10
2019-04-21T05:24:23.026Z,11.70
2019-04-21T05:26:49.071Z,11.55
2019-04-21T05:29:20.755Z,12.53
2019-04-21T05:32:14.043Z,11.15
2019-04-21T05:35:00.219Z,11.68
2019-04-21T05:37:59.892Z,12.25
2019-04-21T05:40:31.859Z,12.80
2019-04-21T05:43:07.927Z,11.97
2019-04-21T05:45:40.798Z,12.25
2019-04-21T05:48:33.626Z,14.10
2019-04-21T05:50:53.757Z,12.65
2019-04-21T05:56:08.825Z,12.50
2019-04-21T05:58:34.923Z,12.93
2019-04-21T06:01:24.125Z,12.00
2019-04-21T06:03:36.875Z,15.15
2019-04-21T06:08:39.100Z,13.03
2019-04-21T06:11:07.353Z,13.40
2019-04-21T06:13:46.391Z,13.28
2019-04-21T06:16:24.185Z,12.75
2019-04-21T06:18:43.235Z,12.60
2019-04-21T06:21:07.237Z,11.57
2019-04-21T06:23:36.532Z,12.50
2019-04-21T06:26:17.899Z,11.55
2019-04-21T06:28:40.166Z,10.13
2019-04-21T06:33:35.711Z,10.90
2019-04-21T06:39:11.676Z,10.93
2019-04-21T06:41:33.886Z,11.50
2019-04-21T06:49:08.566Z,11.80
2019-04-21T06:51:35.976Z,11.30
2019-04-21T06:54:21.026Z,11.50
2019-04-21T06:56:41.023Z,12.00
2019-04-21T06:59:06.988Z,10.93
2019-04-21T07:01:42.191Z,12.35
2019-04-21T07:04:13.447Z,11.45
2019-04-21T07:06:46.975Z,12.05
2019-04-21T07:09:15.979Z,12.13
2019-04-21T07:11:33.157Z,11.00
2019-04-21T07:14:25.906Z,10.68
2019-04-21T07:16:40.481Z,10.60
2019-04-21T07:19:17.506Z,11.28
2019-04-21T07:21:41.091Z,9.95
2019-04-21T07:24:14.246Z,8.83
2019-04-21T07:26:50.781Z,9.73
2019-04-21T07:29:15.803Z,9.10
2019-04-21T07:31:47.123Z,8.28
2019-04-21T07:34:19.708Z,7.08
2019-04-21T07:36:47.612Z,8.18
2019-04-21T07:39:06.821Z,7.62
2019-04-21T07:41:34.029Z,7.80
2019-04-21T07:44:01.756Z,6.10
2019-04-21T07:46:31.406Z,7.08
2019-04-21T07:49:14.014Z,6.87
2019-04-21T07:52:05.233Z,6.17
2019-04-21T07:54:36.036Z,5.53
2019-04-21T07:56:59.355Z,5.53
2019-04-21T07:59:46.116Z,4.47
2019-04-21T08:02:09.036Z,3.42
2019-04-21T08:07:11.733Z,4.67
2019-04-21T08:09:41.213Z,6.00
2019-04-21T08:12:09.468Z,3.53
2019-04-21T08:14:43.547Z,3.67
2019-04-21T08:17:16.383Z,3.97
2019-04-21T08:19:42.796Z,4.43
2019-04-21T08:22:20.530Z,3.93
2019-04-21T08:24:52.148Z,4.10
2019-04-21T08:27:17.567Z,4.13
2019-04-21T08:29:52.177Z,3.70
2019-04-21T08:32:26.523Z,4.03
2019-04-21T08:34:55.143Z,3.40
2019-04-21T08:37:21.488Z,3.87
2019-04-21T08:39:59.324Z,3.47
2019-04-21T08:42:21.962Z,3.73
2019-04-21T08:47:18.423Z,3.43
2019-04-21T08:49:52.483Z,3.90
2019-04-21T08:52:32.687Z,3.10
2019-04-21T08:55:01.969Z,3.97
2019-04-21T08:57:41.698Z,3.70
2019-04-21T09:00:29.573Z,4.03
2019-04-21T09:03:02.517Z,3.80
2019-04-21T09:05:31.319Z,3.90
2019-04-21T09:08:03.861Z,3.57
2019-04-21T09:10:34.761Z,3.60
2019-04-21T09:13:04.269Z,4.00
2019-04-21T09:15:32.476Z,3.70
2019-04-21T09:17:57.995Z,2.97
2019-04-21T09:20:38.729Z,3.23
2019-04-21T09:23:06.720Z,3.57
2019-04-21T09:25:44.678Z,3.50
2019-04-21T09:28:04.068Z,3.23
2019-04-21T09:30:17.548Z,3.70
2019-04-21T09:32:53.145Z,3.97
2019-04-21T09:35:19.104Z,3.80
2019-04-21T09:37:56.411Z,3.87
2019-04-21T09:40:27.457Z,3.30
2019-04-21T09:42:55.957Z,3.20
2019-04-21T09:45:22.129Z,3.73
2019-04-21T09:47:58.608Z,3.30
2019-04-21T09:50:18.285Z,3.50
2019-04-21T09:52:53.050Z,3.60
2019-04-21T09:55:20.726Z,3.43
2019-04-21T09:57:53.552Z,3.60
2019-04-21T10:00:22.743Z,3.70
2019-04-21T10:02:56.813Z,2.77
2019-04-21T10:05:17.569Z,3.90
2019-04-21T10:07:46.476Z,3.23
2019-04-21T10:10:14.983Z,2.80
2019-04-21T10:12:43.424Z,2.97
2019-04-21T10:15:12.404Z,3.47
2019-04-21T10:17:55.996Z,3.13
2019-04-21T10:20:24.612Z,3.10
2019-04-21T10:22:53.124Z,2.90
2019-04-21T10:25:21.217Z,2.60
2019-04-21T10:27:50.051Z,3.20
2019-04-21T10:30:20.390Z,2.63
2019-04-21T10:32:50.159Z,2.97
2019-04-21T10:35:21.198Z,2.57
2019-04-21T10:38:01.768Z,2.50
2019-04-21T10:40:19.645Z,2.80
2019-04-21T10:42:48.102Z,3.00
2019-04-21T10:45:17.062Z,2.97
2019-04-21T10:47:47.093Z,2.83
2019-04-21T10:50:16.285Z,3.23
2019-04-21T10:53:02.995Z,3.27
2019-04-21T10:55:44.435Z,2.93
2019-04-21T10:58:14.008Z,2.67
2019-04-21T11:00:44.022Z,2.73
2019-04-21T11:03:46.812Z,3.30
2019-04-21T11:06:18.885Z,2.93
2019-04-21T11:08:50.691Z,3.30
2019-04-21T11:11:16.823Z,2.90
2019-04-21T11:13:44.874Z,3.63
2019-04-21T11:16:13.187Z,3.67
2019-04-21T11:18:42.146Z,3.30
2019-04-21T11:21:11.499Z,3.53
2019-04-21T11:23:40.531Z,3.47
2019-04-21T11:26:09.936Z,3.83
2019-04-21T11:28:38.890Z,3.30
2019-04-21T11:31:07.134Z,3.60
2019-04-21T11:33:35.570Z,3.47
2019-04-21T11:36:04.028Z,2.67
2019-04-21T11:38:58.093Z,3.43
2019-04-21T11:41:11.833Z,2.90
2019-04-21T11:43:41.333Z,3.00
2019-04-21T11:46:10.693Z,2.87
2019-04-21T11:48:39.979Z,3.37
2019-04-21T11:51:09.024Z,4.03
2019-04-21T11:53:37.378Z,4.40
2019-04-21T11:56:07.000Z,4.20
2019-04-21T11:58:36.081Z,4.60
2019-04-21T12:01:05.608Z,4.17
2019-04-21T12:03:33.780Z,4.20
2019-04-21T12:06:01.849Z,4.17
2019-04-21T12:08:38.514Z,3.57
2019-04-21T12:11:00.166Z,3.40
2019-04-21T12:13:28.078Z,3.57
2019-04-21T12:15:57.162Z,4.40
2019-04-21T12:18:28.231Z,4.90
2019-04-21T12:20:55.795Z,4.33
2019-04-21T12:23:24.675Z,4.27
2019-04-21T12:25:54.725Z,5.00
2019-04-21T12:28:23.861Z,4.00
2019-04-21T12:30:53.785Z,3.80
2019-04-21T12:33:40.382Z,3.83
2019-04-21T12:36:09.567Z,4.43
2019-04-21T12:38:44.706Z,3.87
2019-04-21T12:41:10.705Z,4.00
2019-04-21T12:43:39.016Z,4.33
2019-04-21T12:46:07.696Z,3.90
2019-04-21T12:48:35.849Z,4.13
2019-04-21T12:51:04.646Z,4.70
2019-04-21T12:53:35.927Z,3.83
2019-04-21T12:56:05.484Z,4.03
2019-04-21T12:58:35.251Z,3.77
2019-04-21T13:01:05.059Z,3.10
2019-04-21T13:03:34.093Z,4.03
2019-04-21T13:06:05.521Z,3.00
2019-04-21T13:08:45.699Z,2.90
2019-04-21T13:11:06.512Z,3.47
2019-04-21T13:13:35.757Z,4.10
2019-04-21T13:16:05.347Z,3.60
2019-04-21T13:18:35.312Z,3.97
2019-04-21T13:21:05.521Z,3.90
2019-04-21T13:23:35.027Z,3.90
2019-04-21T13:26:04.946Z,4.37
2019-04-21T13:28:34.601Z,3.53
2019-04-21T13:31:02.819Z,3.93
2019-04-21T13:33:31.251Z,4.10
2019-04-21T13:35:59.351Z,5.10
2019-04-21T13:38:35.161Z,4.50
2019-04-21T13:41:25.899Z,4.00
2019-04-21T13:43:41.436Z,4.07
2019-04-21T13:46:10.081Z,3.47
2019-04-21T13:48:38.150Z,3.40
2019-04-21T13:51:07.121Z,3.80
2019-04-21T13:53:36.327Z,3.93
2019-04-21T13:56:06.857Z,3.97
2019-04-21T13:58:35.413Z,4.63
2019-04-21T14:01:03.580Z,4.23
2019-04-21T14:03:33.407Z,3.90
2019-04-21T14:06:02.580Z,3.50
2019-04-21T14:08:31.304Z,3.43
2019-04-21T14:10:59.937Z,3.67
2019-04-21T14:13:27.913Z,3.90
2019-04-21T14:15:56.254Z,3.90
2019-04-21T14:18:24.745Z,4.30
2019-04-21T14:20:53.420Z,4.20
2019-04-21T14:23:31.724Z,3.70
2019-04-21T14:25:53.272Z,3.27
2019-04-21T14:28:22.019Z,4.77
2019-04-21T14:30:50.509Z,4.30
2019-04-21T14:33:20.336Z,4.33
2019-04-21T14:35:48.473Z,4.73
2019-04-21T14:38:16.628Z,4.23
2019-04-21T14:40:44.554Z,4.70
2019-04-21T14:43:14.176Z,4.00
2019-04-21T14:46:00.823Z,4.20
2019-04-21T14:48:48.682Z,4.53
2019-04-21T14:51:39.281Z,4.83
2019-04-21T14:54:27.077Z,3.40
2019-04-21T14:56:55.578Z,3.80
2019-04-21T14:59:24.768Z,4.20
2019-04-21T15:01:53.648Z,3.70
2019-04-21T15:04:22.370Z,3.87
2019-04-21T15:06:52.054Z,4.00
2019-04-21T15:09:23.008Z,4.50
2019-04-21T15:11:51.962Z,5.27
2019-04-21T15:14:21.881Z,3.70
2019-04-21T15:16:51.258Z,4.43
2019-04-21T15:19:22.425Z,4.03
2019-04-21T15:21:50.509Z,4.60
2019-04-21T15:24:20.383Z,3.70
2019-04-21T15:26:51.564Z,3.97
2019-04-21T15:29:20.352Z,4.60
2019-04-21T15:31:48.713Z,23.20
2019-04-21T15:34:17.443Z,4.57
2019-04-21T15:36:46.241Z,5.47
2019-04-21T15:39:15.935Z,4.17
2019-04-21T15:41:45.009Z,3.87
2019-04-21T15:44:14.587Z,3.80
2019-04-21T15:46:43.964Z,4.80
2019-04-21T15:49:13.214Z,3.73
2019-04-21T15:51:42.177Z,4.33
2019-04-21T15:54:10.965Z,4.10
2019-04-21T15:56:48.957Z,3.93
2019-04-21T15:59:44.256Z,4.70
2019-04-21T16:02:30.999Z,4.80
2019-04-21T16:04:59.046Z,4.40
2019-04-21T16:07:27.451Z,4.80
2019-04-21T16:09:57.824Z,4.00
2019-04-21T16:12:25.884Z,4.50
2019-04-21T16:14:54.490Z,4.53
2019-04-21T16:17:23.550Z,4.60
2019-04-21T16:19:52.238Z,4.00
2019-04-21T16:22:21.024Z,4.47
2019-04-21T16:24:50.468Z,4.10
2019-04-21T16:27:19.479Z,4.30
2019-04-21T16:29:48.030Z,4.90
2019-04-21T16:32:18.350Z,4.23
2019-04-21T16:34:53.625Z,4.17
2019-04-21T16:37:17.328Z,4.80
2019-04-21T16:39:45.435Z,4.40
2019-04-21T16:42:14.219Z,4.20
2019-04-21T16:44:42.983Z,4.17
2019-04-21T16:47:11.756Z,4.40
2019-04-21T16:49:40.011Z,3.90
2019-04-21T16:52:22.449Z,4.00
2019-04-21T16:54:56.360Z,4.50
2019-04-21T16:57:30.036Z,4.80
2019-04-21T17:00:06.427Z,3.77
2019-04-21T17:02:34.597Z,4.00
2019-04-21T17:05:02.730Z,4.53
2019-04-21T17:07:30.781Z,3.40
2019-04-21T17:09:58.981Z,3.70
2019-04-21T17:12:28.745Z,3.63
2019-04-21T17:15:10.908Z,4.57
2019-04-21T17:17:49.748Z,3.83
2019-04-21T17:20:13.592Z,3.70
2019-04-21T17:22:27.998Z,3.90
2019-04-21T17:24:58.139Z,3.73
2019-04-21T17:27:27.171Z,4.30
2019-04-21T17:29:56.753Z,3.80
2019-04-21T17:32:32.090Z,4.40
2019-04-21T17:34:56.287Z,4.03
2019-04-21T17:37:26.789Z,3.90
2019-04-21T17:39:54.528Z,3.73
2019-04-21T17:42:29.805Z,3.90
2019-04-21T17:44:53.051Z,3.50
2019-04-21T17:47:32.761Z,4.23
2019-04-21T17:50:23.281Z,3.10
2019-04-21T17:53:00.894Z,3.27
2019-04-21T17:55:29.794Z,3.70
2019-04-21T17:58:12.094Z,3.40
2019-04-21T18:03:32.770Z,4.90
2019-04-21T18:05:47.502Z,3.93
2019-04-21T18:08:22.903Z,4.17
2019-04-21T18:10:45.781Z,4.10
2019-04-21T18:13:08.798Z,3.70
2019-04-21T18:15:50.618Z,3.87
2019-04-21T18:18:02.871Z,3.90
2019-04-21T18:20:33.498Z,4.20
2019-04-21T18:23:40.842Z,3.73
2019-04-21T18:26:07.479Z,3.33
2019-04-21T18:28:30.676Z,3.37
2019-04-21T18:31:06.925Z,4.07
2019-04-21T18:33:40.491Z,3.40
2019-04-21T18:36:50.235Z,3.57
2019-04-21T18:39:40.614Z,3.60
2019-04-21T18:42:20.292Z,3.10
2019-04-21T18:45:28.462Z,3.27
2019-04-21T18:48:05.090Z,3.47
2019-04-21T18:50:51.103Z,3.50
2019-04-21T18:53:47.022Z,3.20
2019-04-21T18:56:05.248Z,3.60
2019-04-21T18:58:33.343Z,2.93
2019-04-21T19:01:07.551Z,3.67
2019-04-21T19:03:37.619Z,10.30
2019-04-21T19:06:10.769Z,3.40
2019-04-21T19:08:53.377Z,3.87
2019-04-21T19:14:23.128Z,4.28
2019-04-21T19:16:42.604Z,3.67
2019-04-21T19:21:33.234Z,3.05
2019-04-21T19:24:21.476Z,3.65
2019-04-21T19:26:51.077Z,3.62
2019-04-21T19:29:12.467Z,2.87
2019-04-21T19:31:38.535Z,4.35
2019-04-21T19:33:59.441Z,3.50
2019-04-21T19:36:21.520Z,3.20
2019-04-21T19:38:59.617Z,3.98
2019-04-21T19:41:32.509Z,2.70
2019-04-21T19:44:07.055Z,2.50
2019-04-21T19:46:36.885Z,2.67
2019-04-21T19:49:19.678Z,3.60
2019-04-21T19:51:33.858Z,2.70
2019-04-21T19:54:00.776Z,2.95
2019-04-21T19:56:19.820Z,3.02
2019-04-21T19:58:49.129Z,2.75
2019-04-21T20:01:17.509Z,3.20
2019-04-21T20:03:49.835Z,2.90
2019-04-21T20:06:34.548Z,3.40
2019-04-21T20:09:04.250Z,3.20
2019-04-21T20:11:35.661Z,3.15
2019-04-21T20:14:35.701Z,2.60
2019-04-21T20:16:37.357Z,3.00
2019-04-21T20:18:52.949Z,3.52
2019-04-21T20:21:16.409Z,3.10
2019-04-21T20:23:46.258Z,3.47
2019-04-21T20:26:16.008Z,2.58
2019-04-21T20:28:57.166Z,3.55
2019-04-21T20:31:31.633Z,2.90
2019-04-21T20:34:07.799Z,3.50
2019-04-21T20:36:35.313Z,4.05
2019-04-21T20:38:54.944Z,3.45
2019-04-21T20:41:26.994Z,3.17
2019-04-21T20:44:09.873Z,3.50
2019-04-21T20:46:36.802Z,3.15
2019-04-21T20:49:00.707Z,3.80
2019-04-21T20:51:35.880Z,3.52
2019-04-21T20:53:59.132Z,3.27
2019-04-21T20:56:28.772Z,2.70
2019-04-21T20:58:59.791Z,3.15
2019-04-21T21:01:34.755Z,2.75
2019-04-21T21:04:02.324Z,3.67
2019-04-21T21:06:32.883Z,2.98
2019-04-21T21:09:09.094Z,3.20
2019-04-21T21:11:53.538Z,3.72
2019-04-21T21:14:07.122Z,3.45
2019-04-21T21:16:41.463Z,3.92
2019-04-21T21:21:35.188Z,3.98
2019-04-21T21:24:05.549Z,3.90
2019-04-21T21:26:38.218Z,3.80
2019-04-21T21:28:58.824Z,3.17
2019-04-21T21:31:37.352Z,3.22
2019-04-21T21:34:09.549Z,4.65
2019-04-21T21:36:36.639Z,3.05
2019-04-21T21:39:09.675Z,2.70
2019-04-21T21:41:27.714Z,3.07
2019-04-21T21:43:58.014Z,3.63
2019-04-21T21:46:37.276Z,3.75
2019-04-21T21:49:03.133Z,3.40
2019-04-21T21:51:33.110Z,3.47
2019-04-21T21:53:50.896Z,3.17
2019-04-21T21:56:20.590Z,3.23
2019-04-21T21:58:51.499Z,3.27
2019-04-21T22:01:21.836Z,3.27
2019-04-21T22:04:01.687Z,3.60
2019-04-21T22:06:23.987Z,3.47
2019-04-21T22:08:54.498Z,3.27
2019-04-21T22:11:26.296Z,3.43
2019-04-21T22:14:02.445Z,3.87
2019-04-21T22:16:39.006Z,3.60
2019-04-21T22:19:15.202Z,3.90
2019-04-21T22:21:47.723Z,3.80
2019-04-21T22:24:04.779Z,3.70
2019-04-21T22:26:27.324Z,3.70
2019-04-21T22:28:56.082Z,3.43
2019-04-21T22:31:29.994Z,3.70
2019-04-21T22:34:00.365Z,3.80
2019-04-21T22:36:35.509Z,3.57
2019-04-21T22:39:13.346Z,3.43
2019-04-21T22:41:34.652Z,3.87
2019-04-21T22:43:59.387Z,4.23
2019-04-21T22:46:28.551Z,4.17
2019-04-21T22:49:04.932Z,3.70
2019-04-21T22:51:36.859Z,3.63
2019-04-21T22:54:01.010Z,3.87
2019-04-21T22:56:31.994Z,4.60
2019-04-21T22:58:58.989Z,3.70
2019-04-21T23:01:33.518Z,4.27
2019-04-21T23:04:03.269Z,4.30
2019-04-21T23:06:35.643Z,4.33
2019-04-21T23:09:06.610Z,4.55
2019-04-21T23:11:41.706Z,3.90
2019-04-21T23:14:09.694Z,4.00
2019-04-21T23:16:40.274Z,5.10
2019-04-21T23:19:24.061Z,5.35
2019-04-21T23:21:59.637Z,5.10
2019-04-21T23:24:38.580Z,4.50
2019-04-21T23:26:54.462Z,5.15
2019-04-21T23:29:39.189Z,4.45
2019-04-21T23:31:59.218Z,4.60
2019-04-21T23:34:18.389Z,4.50
2019-04-21T23:36:53.014Z,5.10
2019-04-21T23:39:22.707Z,5.05
2019-04-21T23:41:49.093Z,5.12
2019-04-21T23:44:17.203Z,5.40
2019-04-21T23:46:45.915Z,6.00
2019-04-21T23:49:26.905Z,5.78
2019-04-21T23:51:50.886Z,5.12
2019-04-21T23:54:15.623Z,5.50
2019-04-21T23:56:47.538Z,5.28
2019-04-21T23:59:17.806Z,5.30
